createdAt,value
2018-04-06T00:01:52.404Z,49.67
2018-04-06T00:04:18.347Z,49.77
2018-04-06T00:06:44.318Z,49.72
2018-04-06T00:09:10.334Z,49.86
2018-04-06T00:11:36.276Z,49.74
2018-04-06T00:14:02.221Z,49.77
2018-04-06T00:16:28.177Z,50.01
2018-04-06T00:18:54.110Z,49.90
2018-04-06T00:21:20.054Z,49.98
2018-04-06T00:23:46.037Z,49.96
2018-04-06T00:26:11.993Z,49.94
2018-04-06T00:28:37.933Z,50.14
2018-04-06T00:31:03.894Z,50.12
2018-04-06T00:33:29.864Z,50.15
2018-04-06T00:35:55.830Z,50.14
2018-04-06T00:38:21.775Z,50.10
2018-04-06T00:40:47.757Z,50.08
2018-04-06T00:43:13.697Z,50.05
2018-04-06T00:45:39.660Z,49.90
2018-04-06T00:48:05.602Z,50.02
2018-04-06T00:50:31.573Z,50.02
2018-04-06T00:52:57.525Z,50.08
2018-04-06T00:55:23.490Z,49.97
2018-04-06T00:57:49.438Z,49.93
2018-04-06T01:00:15.385Z,50.23
2018-04-06T01:02:41.328Z,50.04
2018-04-06T01:05:07.374Z,50.07
2018-04-06T01:07:33.334Z,50.20
2018-04-06T01:09:59.289Z,50.28
2018-04-06T01:12:25.301Z,50.19
2018-04-06T01:14:51.269Z,50.12
2018-04-06T01:17:17.223Z,50.30
2018-04-06T01:19:43.217Z,50.42
2018-04-06T01:22:09.164Z,50.33
2018-04-06T01:24:35.116Z,50.34
2018-04-06T01:27:01.132Z,50.29
2018-04-06T01:29:27.102Z,50.26
2018-04-06T01:31:53.041Z,50.13
2018-04-06T01:34:19.037Z,50.12
2018-04-06T01:36:44.980Z,50.26
2018-04-06T01:39:10.951Z,50.03
2018-04-06T01:41:36.953Z,50.25
2018-04-06T01:44:02.904Z,49.95
2018-04-06T01:46:28.873Z,50.22
2018-04-06T01:48:54.807Z,49.97
2018-04-06T01:51:20.753Z,49.97
2018-04-06T01:53:46.709Z,50.05
2018-04-06T01:56:12.657Z,50.18
2018-04-06T01:58:38.604Z,50.15
2018-04-06T02:01:04.566Z,50.20
2018-04-06T02:03:30.508Z,50.23
2018-04-06T02:05:56.449Z,50.39
2018-04-06T02:08:22.393Z,50.39
2018-04-06T02:10:48.348Z,50.36
2018-04-06T02:13:14.284Z,50.26
2018-04-06T02:15:40.237Z,50.18
2018-04-06T02:18:06.170Z,50.25
2018-04-06T02:20:32.109Z,50.17
2018-04-06T02:22:58.050Z,50.01
2018-04-06T02:25:23.993Z,50.17
2018-04-06T02:27:49.989Z,50.19
2018-04-06T02:30:15.931Z,50.09
2018-04-06T02:32:41.882Z,49.90
2018-04-06T02:35:07.836Z,50.06
2018-04-06T02:37:33.818Z,50.16
2018-04-06T02:39:59.794Z,50.00
2018-04-06T02:42:25.737Z,50.01
2018-04-06T02:44:51.693Z,50.13
2018-04-06T02:47:17.633Z,50.41
2018-04-06T02:49:43.570Z,50.04
2018-04-06T02:52:09.547Z,50.12
2018-04-06T02:54:35.490Z,50.43
2018-04-06T02:57:01.472Z,50.57
2018-04-06T02:59:27.405Z,50.20
2018-04-06T03:01:53.373Z,50.47
2018-04-06T03:04:19.325Z,50.21
2018-04-06T03:06:45.278Z,50.30
2018-04-06T03:09:11.238Z,50.09
2018-04-06T03:11:37.181Z,50.06
2018-04-06T03:14:03.145Z,50.18
2018-04-06T03:16:29.098Z,49.97
2018-04-06T03:18:55.142Z,50.16
2018-04-06T03:21:21.077Z,49.98
2018-04-06T03:23:47.062Z,50.00
2018-04-06T03:26:13.090Z,50.11
2018-04-06T03:28:39.051Z,49.82
2018-04-06T03:31:04.991Z,49.92
2018-04-06T03:33:30.978Z,49.68
2018-04-06T03:35:56.926Z,49.38
2018-04-06T03:38:22.873Z,49.10
2018-04-06T03:40:48.902Z,49.15
2018-04-06T03:43:14.842Z,49.03
2018-04-06T03:45:40.813Z,49.29
2018-04-06T03:48:06.753Z,49.21
2018-04-06T03:50:32.697Z,48.93
2018-04-06T03:52:58.643Z,49.02
2018-04-06T03:55:24.597Z,48.93
2018-04-06T03:57:50.549Z,49.20
2018-04-06T04:00:16.485Z,48.88
2018-04-06T04:02:42.549Z,49.05
2018-04-06T04:05:08.605Z,48.96
2018-04-06T04:07:34.566Z,48.87
2018-04-06T04:10:00.518Z,49.18
2018-04-06T04:12:26.455Z,49.19
2018-04-06T04:14:52.393Z,49.19
2018-04-06T04:17:18.334Z,49.06
2018-04-06T04:19:44.333Z,49.08
2018-04-06T04:22:10.277Z,49.24
2018-04-06T04:24:36.237Z,49.30
2018-04-06T04:27:02.193Z,49.33
2018-04-06T04:29:28.152Z,49.28
2018-04-06T04:31:54.093Z,49.38
2018-04-06T04:34:20.046Z,49.46
2018-04-06T04:36:45.998Z,49.40
2018-04-06T04:39:11.941Z,49.37
2018-04-06T04:41:37.886Z,49.51
2018-04-06T04:44:03.832Z,49.47
2018-04-06T04:46:29.940Z,49.37
2018-04-06T04:48:55.965Z,49.46
2018-04-06T04:51:21.909Z,49.30
2018-04-06T04:53:47.869Z,49.30
2018-04-06T04:56:13.805Z,49.26
2018-04-06T04:58:39.772Z,49.41
2018-04-06T05:01:05.702Z,49.27
2018-04-06T05:03:31.662Z,49.25
2018-04-06T05:05:57.602Z,49.24
2018-04-06T05:08:23.561Z,49.36
2018-04-06T05:10:49.497Z,49.43
2018-04-06T05:13:15.445Z,49.39
2018-04-06T05:15:41.413Z,49.42
2018-04-06T05:18:07.371Z,49.34
2018-04-06T05:20:33.322Z,49.34
2018-04-06T05:22:59.260Z,49.38
2018-04-06T05:25:25.231Z,49.26
2018-04-06T05:27:51.177Z,49.34
2018-04-06T05:30:17.154Z,49.39
2018-04-06T05:32:43.117Z,49.23
2018-04-06T05:35:09.154Z,49.42
2018-04-06T05:37:35.101Z,49.52
2018-04-06T05:40:01.053Z,49.57
2018-04-06T05:42:27.057Z,49.37
2018-04-06T05:44:53.010Z,49.36
2018-04-06T05:47:18.946Z,49.40
2018-04-06T05:49:44.933Z,49.42
2018-04-06T05:52:11.006Z,49.33
2018-04-06T05:54:36.958Z,49.40
2018-04-06T05:57:02.926Z,49.38
2018-04-06T05:59:28.861Z,49.37
2018-04-06T06:01:54.813Z,49.49
2018-04-06T06:04:20.785Z,49.39
2018-04-06T06:06:46.757Z,50.42
2018-04-06T06:09:12.714Z,49.84
2018-04-06T06:11:38.765Z,49.49
2018-04-06T06:14:04.709Z,49.66
2018-04-06T06:16:30.681Z,49.62
2018-04-06T06:18:56.647Z,49.68
2018-04-06T06:21:22.599Z,49.74
2018-04-06T06:23:48.533Z,49.81
2018-04-06T06:26:14.499Z,49.95
2018-04-06T06:28:40.491Z,49.90
2018-04-06T06:31:06.442Z,49.97
2018-04-06T06:33:32.394Z,50.02
2018-04-06T06:35:58.532Z,49.99
2018-04-06T06:38:24.485Z,50.03
2018-04-06T06:40:50.445Z,50.05
2018-04-06T06:43:16.374Z,49.94
2018-04-06T06:45:42.405Z,50.14
2018-04-06T06:48:08.345Z,50.21
2018-04-06T06:50:34.342Z,50.20
2018-04-06T06:53:00.407Z,50.09
2018-04-06T06:55:26.364Z,50.16
2018-04-06T06:57:52.349Z,50.09
2018-04-06T07:00:18.285Z,50.27
2018-04-06T07:02:45.224Z,50.16
2018-04-06T07:05:11.342Z,50.29
2018-04-06T07:07:37.366Z,50.36
2018-04-06T07:10:03.402Z,50.20
2018-04-06T07:12:29.445Z,50.08
2018-04-06T07:14:55.443Z,50.01
2018-04-06T07:17:21.412Z,50.13
2018-04-06T07:19:47.369Z,50.13
2018-04-06T07:22:13.324Z,50.14
2018-04-06T07:24:39.392Z,50.08
2018-04-06T07:27:05.425Z,49.94
2018-04-06T07:29:31.405Z,50.04
2018-04-06T07:31:57.364Z,49.96
2018-04-06T07:34:23.315Z,50.58
2018-04-06T07:36:49.344Z,50.78
2018-04-06T07:39:15.292Z,50.59
2018-04-06T07:41:41.252Z,50.30
2018-04-06T07:44:07.227Z,50.44
2018-04-06T07:46:33.180Z,50.35
2018-04-06T07:48:59.130Z,50.39
2018-04-06T07:51:25.082Z,50.48
2018-04-06T07:53:51.049Z,50.45
2018-04-06T07:56:17.003Z,50.85
2018-04-06T07:58:42.977Z,49.66
2018-04-06T08:01:08.933Z,50.44
2018-04-06T08:03:34.898Z,50.06
2018-04-06T08:06:01.108Z,49.53
2018-04-06T08:08:27.085Z,49.53
2018-04-06T08:10:53.146Z,49.88
2018-04-06T08:13:19.086Z,49.84
2018-04-06T08:15:45.153Z,49.99
2018-04-06T08:18:11.199Z,49.95
2018-04-06T08:20:37.222Z,50.03
2018-04-06T08:23:03.163Z,49.91
2018-04-06T08:25:29.249Z,49.99
2018-04-06T08:27:55.198Z,49.83
2018-04-06T08:30:21.157Z,49.91
2018-04-06T08:32:47.121Z,50.20
2018-04-06T08:35:13.094Z,50.69
2018-04-06T08:37:39.053Z,50.51
2018-04-06T08:40:05.003Z,50.30
2018-04-06T08:42:30.985Z,50.27
2018-04-06T08:44:56.919Z,50.29
2018-04-06T08:47:22.866Z,50.20
2018-04-06T08:49:48.838Z,50.23
2018-04-06T08:52:14.796Z,49.68
2018-04-06T08:54:40.760Z,49.88
2018-04-06T08:57:06.697Z,49.96
2018-04-06T08:59:32.663Z,49.86
2018-04-06T09:01:58.666Z,49.87
2018-04-06T09:04:24.618Z,49.71
2018-04-06T09:06:50.594Z,49.74
2018-04-06T09:09:16.565Z,49.77
2018-04-06T09:11:42.491Z,49.64
2018-04-06T09:14:08.455Z,49.65
2018-04-06T09:16:34.390Z,49.73
2018-04-06T09:19:00.351Z,49.49
2018-04-06T09:21:26.289Z,49.45
2018-04-06T09:23:52.269Z,49.49
2018-04-06T09:26:18.221Z,49.44
2018-04-06T09:28:44.178Z,49.35
2018-04-06T09:31:10.129Z,49.44
2018-04-06T09:33:36.099Z,49.40
2018-04-06T09:36:02.058Z,49.39
2018-04-06T09:38:28.000Z,49.47
2018-04-06T09:40:53.941Z,49.36
2018-04-06T09:43:19.913Z,49.42
2018-04-06T09:45:45.897Z,49.40
2018-04-06T09:48:11.834Z,49.32
2018-04-06T09:50:37.834Z,49.40
2018-04-06T09:53:03.793Z,49.25
2018-04-06T09:55:29.756Z,49.37
2018-04-06T09:57:55.702Z,49.27
2018-04-06T10:00:21.662Z,49.21
2018-04-06T10:02:47.607Z,49.41
2018-04-06T10:05:13.557Z,49.45
2018-04-06T10:07:39.510Z,49.50
2018-04-06T10:10:05.458Z,49.26
2018-04-06T10:12:31.417Z,49.43
2018-04-06T10:14:57.353Z,49.62
2018-04-06T10:17:23.385Z,49.37
2018-04-06T10:19:49.334Z,49.57
2018-04-06T10:22:15.278Z,49.50
2018-04-06T10:24:41.246Z,49.32
2018-04-06T10:27:07.193Z,49.33
2018-04-06T10:29:33.149Z,49.23
2018-04-06T10:31:59.177Z,49.18
2018-04-06T10:34:25.140Z,48.98
2018-04-06T10:36:51.085Z,49.04
2018-04-06T10:39:17.023Z,49.08
2018-04-06T10:41:42.957Z,49.05
2018-04-06T10:44:08.901Z,49.10
2018-04-06T10:46:35.018Z,47.71
2018-04-06T10:49:00.990Z,47.47
2018-04-06T10:51:26.925Z,47.82
2018-04-06T10:53:52.909Z,48.23
2018-04-06T10:56:18.846Z,48.39
2018-04-06T10:58:44.805Z,47.68
2018-04-06T11:01:10.846Z,47.97
2018-04-06T11:03:36.811Z,47.93
2018-04-06T11:06:02.796Z,48.34
2018-04-06T11:08:28.741Z,48.69
2018-04-06T11:10:54.719Z,48.46
2018-04-06T11:13:20.654Z,49.21
2018-04-06T11:15:46.612Z,48.36
2018-04-06T11:18:12.581Z,48.20
2018-04-06T11:20:38.531Z,48.40
2018-04-06T11:23:04.527Z,48.38
2018-04-06T11:25:30.414Z,48.57
2018-04-06T11:27:56.368Z,48.68
2018-04-06T11:30:22.349Z,48.69
2018-04-06T11:32:48.277Z,48.85
2018-04-06T11:35:14.237Z,48.99
2018-04-06T11:37:40.203Z,49.65
2018-04-06T11:40:06.140Z,49.56
2018-04-06T11:42:32.106Z,49.42
2018-04-06T11:44:58.055Z,49.27
2018-04-06T11:47:24.022Z,49.08
2018-04-06T11:49:49.963Z,48.84
2018-04-06T11:52:15.936Z,49.10
2018-04-06T11:54:41.885Z,49.17
2018-04-06T11:57:07.848Z,49.34
2018-04-06T11:59:33.791Z,49.21
2018-04-06T12:01:59.734Z,48.92
2018-04-06T12:04:25.698Z,48.79
2018-04-06T12:06:51.639Z,48.61
2018-04-06T12:09:17.573Z,48.92
2018-04-06T12:11:43.599Z,48.94
2018-04-06T12:14:09.574Z,48.93
2018-04-06T12:16:35.520Z,48.93
2018-04-06T12:19:01.526Z,48.79
2018-04-06T12:21:27.470Z,48.88
2018-04-06T12:23:53.422Z,48.87
2018-04-06T12:26:19.394Z,49.09
2018-04-06T12:28:45.426Z,49.09
2018-04-06T12:31:11.404Z,48.96
2018-04-06T12:33:37.351Z,49.49
2018-04-06T12:36:03.301Z,49.15
2018-04-06T12:38:29.250Z,49.09
2018-04-06T12:40:55.265Z,48.96
2018-04-06T12:43:21.222Z,48.05
2018-04-06T12:45:47.185Z,48.84
2018-04-06T12:48:13.150Z,48.55
2018-04-06T12:50:39.141Z,47.42
2018-04-06T12:53:05.102Z,47.14
2018-04-06T12:55:31.060Z,47.53
2018-04-06T12:57:57.057Z,47.78
2018-04-06T13:00:23.001Z,48.07
2018-04-06T13:02:48.957Z,48.04
2018-04-06T13:05:14.902Z,48.04
2018-04-06T13:07:40.917Z,48.24
2018-04-06T13:10:06.879Z,48.16
2018-04-06T13:12:32.885Z,48.06
2018-04-06T13:14:58.830Z,48.04
2018-04-06T13:17:24.782Z,48.13
2018-04-06T13:19:50.763Z,47.99
2018-04-06T13:22:16.693Z,48.05
2018-04-06T13:24:42.666Z,48.22
2018-04-06T13:27:08.630Z,48.27
2018-04-06T13:29:34.573Z,48.24
2018-04-06T13:32:00.566Z,48.39
2018-04-06T13:34:26.510Z,48.46
2018-04-06T13:36:52.457Z,48.37
2018-04-06T13:39:18.425Z,48.37
2018-04-06T13:41:44.365Z,48.24
2018-04-06T13:44:10.314Z,48.40
2018-04-06T13:46:36.360Z,48.39
2018-04-06T13:49:02.363Z,48.29
2018-04-06T13:51:28.299Z,49.64
2018-04-06T13:53:54.240Z,48.74
2018-04-06T13:56:20.184Z,48.49
2018-04-06T13:58:46.120Z,48.40
2018-04-06T14:01:12.125Z,48.30
2018-04-06T14:03:38.046Z,48.51
2018-04-06T14:06:04.021Z,48.65
2018-04-06T14:08:29.977Z,48.87
2018-04-06T14:10:55.916Z,48.88
2018-04-06T14:13:21.855Z,48.65
2018-04-06T14:15:47.885Z,48.54
2018-04-06T14:18:13.841Z,48.59
2018-04-06T14:20:39.805Z,48.54
2018-04-06T14:23:05.771Z,48.64
2018-04-06T14:25:31.735Z,48.51
2018-04-06T14:27:57.674Z,48.46
2018-04-06T14:30:23.613Z,48.42
2018-04-06T14:32:49.573Z,48.29
2018-04-06T14:35:15.516Z,48.49
2018-04-06T14:37:41.501Z,48.52
2018-04-06T14:40:07.459Z,48.55
2018-04-06T14:42:33.415Z,48.40
2018-04-06T14:44:59.350Z,48.40
2018-04-06T14:47:25.290Z,48.58
2018-04-06T14:49:51.270Z,48.51
2018-04-06T14:52:17.241Z,48.69
2018-04-06T14:54:43.174Z,48.66
2018-04-06T14:57:09.231Z,48.77
2018-04-06T14:59:35.232Z,48.70
2018-04-06T15:02:01.241Z,48.20
2018-04-06T15:04:27.184Z,48.34
2018-04-06T15:06:53.532Z,48.80
2018-04-06T15:09:19.470Z,48.61
2018-04-06T15:11:45.428Z,48.81
2018-04-06T15:14:11.382Z,48.96
2018-04-06T15:16:37.329Z,49.00
2018-04-06T15:19:03.267Z,49.21
2018-04-06T15:21:30.229Z,49.24
2018-04-06T15:23:56.214Z,49.23
2018-04-06T15:26:22.149Z,49.37
2018-04-06T15:28:48.110Z,49.44
2018-04-06T15:31:14.056Z,49.35
2018-04-06T15:33:39.996Z,49.47
2018-04-06T15:36:05.970Z,49.77
2018-04-06T15:38:31.930Z,49.76
2018-04-06T15:40:57.871Z,49.82
2018-04-06T15:43:23.824Z,49.73
2018-04-06T15:45:49.785Z,49.78
2018-04-06T15:48:15.748Z,49.88
2018-04-06T15:50:41.693Z,49.99
2018-04-06T15:53:07.642Z,49.91
2018-04-06T15:55:33.613Z,47.99
2018-04-06T15:57:59.614Z,45.87
2018-04-06T16:00:25.555Z,45.02
2018-04-06T16:02:51.503Z,44.30
2018-04-06T16:05:17.455Z,44.02
2018-04-06T16:07:43.393Z,43.92
2018-04-06T16:10:09.343Z,45.31
2018-04-06T16:12:35.330Z,45.70
2018-04-06T16:15:01.269Z,46.44
2018-04-06T16:17:27.229Z,47.04
2018-04-06T16:19:53.227Z,46.81
2018-04-06T16:22:19.166Z,46.52
2018-04-06T16:24:45.232Z,46.93
2018-04-06T16:27:11.258Z,46.48
2018-04-06T16:29:37.215Z,46.61
2018-04-06T16:32:03.165Z,45.58
2018-04-06T16:34:29.118Z,46.09
2018-04-06T16:36:55.057Z,47.32
2018-04-06T16:39:21.018Z,47.26
2018-04-06T16:41:46.994Z,47.38
2018-04-06T16:44:12.941Z,47.55
2018-04-06T16:46:39.000Z,47.48
2018-04-06T16:49:04.946Z,48.03
2018-04-06T16:51:30.898Z,48.07
2018-04-06T16:53:56.858Z,47.93
2018-04-06T16:56:22.817Z,47.51
2018-04-06T16:58:48.857Z,48.15
2018-04-06T17:01:14.902Z,48.59
2018-04-06T17:03:40.838Z,48.86
2018-04-06T17:06:06.780Z,48.60
2018-04-06T17:08:32.749Z,48.24
2018-04-06T17:10:58.688Z,48.21
2018-04-06T17:13:24.661Z,47.97
2018-04-06T17:15:50.627Z,48.40
2018-04-06T17:18:16.615Z,48.13
2018-04-06T17:20:42.571Z,48.39
2018-04-06T17:23:08.516Z,48.38
2018-04-06T17:25:34.499Z,48.27
2018-04-06T17:28:00.464Z,48.46
2018-04-06T17:30:26.406Z,48.65
2018-04-06T17:32:52.367Z,48.51
2018-04-06T17:35:18.310Z,48.86
2018-04-06T17:37:44.306Z,49.02
2018-04-06T17:40:10.289Z,49.14
2018-04-06T17:42:36.261Z,48.99
2018-04-06T17:45:02.199Z,49.46
2018-04-06T17:47:28.177Z,49.13
2018-04-06T17:49:54.127Z,49.44
2018-04-06T17:52:20.088Z,49.32
2018-04-06T17:54:46.031Z,49.38
2018-04-06T17:57:11.966Z,49.42
2018-04-06T17:59:37.928Z,49.02
2018-04-06T18:02:03.865Z,49.71
2018-04-06T18:04:29.819Z,49.16
2018-04-06T18:06:55.793Z,48.72
2018-04-06T18:09:21.742Z,49.01
2018-04-06T18:11:47.689Z,49.65
2018-04-06T18:14:13.631Z,49.37
2018-04-06T18:16:39.574Z,49.31
2018-04-06T18:19:05.553Z,49.01
2018-04-06T18:21:31.500Z,49.42
2018-04-06T18:23:57.457Z,49.59
2018-04-06T18:26:23.442Z,49.18
2018-04-06T18:28:49.421Z,49.58
2018-04-06T18:31:15.373Z,49.55
2018-04-06T18:33:41.401Z,49.74
2018-04-06T18:36:07.379Z,49.48
2018-04-06T18:38:33.343Z,49.54
2018-04-06T18:40:59.286Z,49.61
2018-04-06T18:43:25.261Z,49.61
2018-04-06T18:45:51.213Z,49.33
2018-04-06T18:48:17.197Z,49.36
2018-04-06T18:50:43.198Z,49.42
2018-04-06T18:53:09.134Z,49.24
2018-04-06T18:55:35.096Z,49.23
2018-04-06T18:58:01.077Z,49.17
2018-04-06T19:00:27.042Z,49.18
2018-04-06T19:02:52.976Z,49.46
2018-04-06T19:05:18.930Z,49.46
2018-04-06T19:07:44.879Z,49.34
2018-04-06T19:10:10.876Z,49.46
2018-04-06T19:12:36.831Z,49.46
2018-04-06T19:15:02.803Z,49.36
2018-04-06T19:17:28.738Z,49.50
2018-04-06T19:19:54.722Z,49.14
2018-04-06T19:22:20.689Z,49.44
2018-04-06T19:24:47.438Z,49.34
2018-04-06T19:27:13.372Z,49.38
2018-04-06T19:29:39.322Z,49.31
2018-04-06T19:32:05.271Z,49.27
2018-04-06T19:34:31.235Z,49.28
2018-04-06T19:36:57.209Z,49.33
2018-04-06T19:39:23.206Z,49.41
2018-04-06T19:41:49.165Z,49.21
2018-04-06T19:44:15.137Z,49.29
2018-04-06T19:46:41.087Z,49.44
2018-04-06T19:49:07.038Z,49.28
2018-04-06T19:51:33.059Z,49.35
2018-04-06T19:53:59.025Z,49.66
2018-04-06T19:56:24.975Z,49.54
2018-04-06T19:58:50.953Z,49.61
2018-04-06T20:01:16.907Z,49.53
2018-04-06T20:03:42.964Z,49.57
2018-04-06T20:06:08.927Z,49.55
2018-04-06T20:08:34.903Z,49.48
2018-04-06T20:11:00.859Z,49.60
2018-04-06T20:13:26.835Z,49.62
2018-04-06T20:15:52.834Z,49.56
2018-04-06T20:18:18.782Z,49.32
2018-04-06T20:20:44.718Z,49.43
2018-04-06T20:23:10.666Z,49.60
2018-04-06T20:25:36.617Z,49.49
2018-04-06T20:28:02.595Z,49.45
2018-04-06T20:33:10.590Z,49.58
2018-04-06T20:35:36.545Z,49.62
2018-04-06T20:38:02.499Z,49.72
2018-04-06T20:40:28.452Z,49.24
2018-04-06T20:42:54.430Z,49.66
2018-04-06T20:45:20.425Z,49.50
2018-04-06T20:47:46.451Z,49.71
2018-04-06T20:50:12.420Z,49.36
2018-04-06T20:52:38.379Z,49.34
2018-04-06T20:55:04.369Z,49.19
2018-04-06T20:57:30.336Z,49.31
2018-04-06T20:59:56.278Z,49.35
2018-04-06T21:02:22.241Z,49.35
2018-04-06T21:04:48.203Z,49.28
2018-04-06T21:07:14.179Z,49.39
2018-04-06T21:09:40.125Z,49.49
2018-04-06T21:12:06.085Z,49.48
2018-04-06T21:14:32.064Z,49.64
2018-04-06T21:16:58.219Z,49.58
2018-04-06T21:19:24.179Z,49.70
2018-04-06T21:21:50.142Z,49.67
2018-04-06T21:24:16.092Z,49.83
2018-04-06T21:26:42.055Z,49.58
2018-04-06T21:29:07.992Z,49.74
2018-04-06T21:31:33.984Z,49.97
2018-04-06T21:33:59.926Z,49.78
2018-04-06T21:36:25.904Z,49.77
2018-04-06T21:38:51.860Z,49.75
2018-04-06T21:41:17.869Z,49.94
2018-04-06T21:43:43.822Z,49.85
2018-04-06T21:46:09.786Z,50.31
2018-04-06T21:48:35.718Z,50.10
2018-04-06T21:51:01.776Z,49.87
2018-04-06T21:53:27.792Z,49.71
2018-04-06T21:55:53.834Z,49.93
2018-04-06T21:58:19.784Z,49.81
2018-04-06T22:00:45.748Z,49.90
2018-04-06T22:03:11.811Z,49.80
2018-04-06T22:05:37.769Z,49.35
2018-04-06T22:08:03.726Z,49.66
2018-04-06T22:10:29.719Z,49.60
2018-04-06T22:12:55.663Z,49.85
2018-04-06T22:15:21.618Z,49.90
2018-04-06T22:17:47.557Z,50.08
2018-04-06T22:20:13.529Z,49.86
2018-04-06T22:22:39.465Z,49.79
2018-04-06T22:25:05.450Z,50.02
2018-04-06T22:27:31.386Z,50.04
2018-04-06T22:29:57.352Z,50.05
2018-04-06T22:32:23.289Z,50.15
2018-04-06T22:34:49.237Z,49.82
2018-04-06T22:37:15.339Z,49.93
2018-04-06T22:39:41.298Z,49.88
2018-04-06T22:42:07.316Z,49.60
2018-04-06T22:44:33.254Z,49.96
2018-04-06T22:46:59.212Z,49.92
2018-04-06T22:49:25.166Z,49.64
2018-04-06T22:51:51.203Z,49.61
2018-04-06T22:54:17.151Z,49.56
2018-04-06T22:56:43.110Z,49.55
2018-04-06T22:59:09.055Z,49.54
2018-04-06T23:01:35.003Z,49.53
2018-04-06T23:04:00.960Z,49.85
2018-04-06T23:06:26.929Z,49.87
2018-04-06T23:08:52.885Z,49.98
2018-04-06T23:11:18.833Z,49.71
2018-04-06T23:13:44.793Z,49.65
2018-04-06T23:16:10.737Z,49.91
2018-04-06T23:18:36.693Z,49.81
2018-04-06T23:21:02.639Z,49.97
2018-04-06T23:23:28.606Z,49.77
2018-04-06T23:25:54.558Z,49.67
2018-04-06T23:28:20.536Z,49.75
2018-04-06T23:30:46.482Z,49.40
2018-04-06T23:33:12.458Z,49.55
2018-04-06T23:35:38.426Z,49.70
2018-04-06T23:38:04.386Z,50.56
2018-04-06T23:40:30.353Z,49.82
2018-04-06T23:42:56.322Z,49.80
2018-04-06T23:45:22.315Z,49.66
2018-04-06T23:47:48.246Z,49.57
2018-04-06T23:50:14.222Z,49.47
2018-04-06T23:52:40.210Z,49.75
2018-04-06T23:55:06.149Z,49.58
2018-04-06T23:57:32.213Z,49.71
2018-04-06T23:59:58.154Z,50.07
